createdAt,value
2022-08-30T00:00:21.972Z,99250.00
2022-08-30T00:02:50.647Z,99254.56
2022-08-30T00:05:19.382Z,99256.34
2022-08-30T00:07:47.972Z,99264.25
2022-08-30T00:10:17.693Z,99261.13
2022-08-30T00:12:46.244Z,99272.09
2022-08-30T00:15:16.215Z,99273.34
2022-08-30T00:17:45.231Z,99278.69
2022-08-30T00:20:19.075Z,99287.81
2022-08-30T00:22:47.886Z,99288.44
2022-08-30T00:25:17.406Z,99288.50
2022-08-30T00:27:46.402Z,99299.78
2022-08-30T00:30:16.813Z,99293.44
2022-08-30T00:32:45.852Z,99300.19
2022-08-30T00:35:17.520Z,99302.19
2022-08-30T00:37:46.022Z,99311.06
2022-08-30T00:40:16.958Z,99315.66
2022-08-30T00:42:50.087Z,99310.25
2022-08-30T00:45:26.351Z,99319.19
2022-08-30T00:47:55.100Z,99315.31
2022-08-30T00:50:27.481Z,99319.88
2022-08-30T00:52:59.440Z,99312.63
2022-08-30T00:55:29.073Z,99315.91
2022-08-30T00:58:01.972Z,99331.19
2022-08-30T01:00:33.992Z,99330.34
2022-08-30T01:03:02.686Z,99330.84
2022-08-30T01:05:31.965Z,99341.78
2022-08-30T01:08:00.495Z,99349.16
2022-08-30T01:10:29.045Z,99349.63
2022-08-30T01:12:57.751Z,99346.50
2022-08-30T01:15:26.944Z,99349.75
2022-08-30T01:17:58.119Z,99357.34
2022-08-30T01:20:38.066Z,99363.50
2022-08-30T01:23:17.577Z,99357.00
2022-08-30T01:25:50.905Z,99352.38
2022-08-30T01:28:26.432Z,99356.38
2022-08-30T01:30:55.693Z,99361.72
2022-08-30T01:33:25.896Z,99359.34
2022-08-30T01:35:56.014Z,99369.53
2022-08-30T01:38:38.552Z,99372.28
2022-08-30T01:41:32.266Z,99372.50
2022-08-30T01:44:03.214Z,99371.97
2022-08-30T01:46:37.894Z,99377.06
2022-08-30T01:49:09.944Z,99380.88
2022-08-30T01:51:39.065Z,99382.16
2022-08-30T01:54:08.294Z,99380.88
2022-08-30T01:56:36.857Z,99378.28
2022-08-30T01:59:06.377Z,99382.84
2022-08-30T02:01:38.029Z,99376.66
2022-08-30T02:04:08.568Z,99367.13
2022-08-30T02:06:39.464Z,99366.78
2022-08-30T02:09:08.402Z,99359.84
2022-08-30T02:11:37.160Z,99367.28
2022-08-30T02:14:06.548Z,99368.25
2022-08-30T02:16:35.319Z,99370.75
2022-08-30T02:19:04.387Z,99380.44
2022-08-30T02:21:32.953Z,99385.22
2022-08-30T02:24:01.629Z,99377.72
2022-08-30T02:26:30.313Z,99381.75
2022-08-30T02:29:01.080Z,99383.50
2022-08-30T02:31:29.646Z,99379.06
2022-08-30T02:33:58.265Z,99379.50
2022-08-30T02:36:26.939Z,99375.06
2022-08-30T02:38:55.795Z,99369.63
2022-08-30T02:41:24.805Z,99372.13
2022-08-30T02:43:53.776Z,99376.91
2022-08-30T02:46:22.311Z,99380.41
2022-08-30T02:48:51.031Z,99378.75
2022-08-30T02:51:19.594Z,99383.53
2022-08-30T02:53:48.380Z,99376.28
2022-08-30T02:56:18.009Z,99382.56
2022-08-30T02:58:49.190Z,99374.00
2022-08-30T03:01:19.361Z,99372.59
2022-08-30T03:03:49.011Z,99372.69
2022-08-30T03:06:17.907Z,99367.44
2022-08-30T03:08:46.483Z,99367.31
2022-08-30T03:11:15.077Z,99363.66
2022-08-30T03:13:43.626Z,99368.19
2022-08-30T03:16:12.365Z,99359.19
2022-08-30T03:18:41.127Z,99357.66
2022-08-30T03:21:14.651Z,99360.47
2022-08-30T03:23:43.825Z,99355.38
2022-08-30T03:26:15.801Z,99355.16
2022-08-30T03:28:45.117Z,99351.59
2022-08-30T03:31:14.237Z,99358.75
2022-08-30T03:33:43.067Z,99354.41
2022-08-30T03:36:13.703Z,99353.66
2022-08-30T03:38:42.298Z,99356.47
2022-08-30T03:41:10.825Z,99342.91
2022-08-30T03:43:39.482Z,99341.34
2022-08-30T03:46:09.877Z,99341.34
2022-08-30T03:48:38.773Z,99346.25
2022-08-30T03:51:07.749Z,99346.69
2022-08-30T03:53:36.382Z,99346.78
2022-08-30T03:56:05.750Z,99351.03
2022-08-30T03:58:35.581Z,99344.47
2022-08-30T04:01:04.310Z,99346.19
2022-08-30T04:03:32.966Z,99346.66
2022-08-30T04:06:02.482Z,99337.28
2022-08-30T04:08:31.072Z,99340.72
2022-08-30T04:11:00.223Z,99343.19
2022-08-30T04:13:28.803Z,99336.09
2022-08-30T04:15:57.518Z,99338.81
2022-08-30T04:18:26.173Z,99327.38
2022-08-30T04:20:55.102Z,99318.72
2022-08-30T04:23:23.628Z,99329.16
2022-08-30T04:25:52.082Z,99326.19
2022-08-30T04:28:20.801Z,99320.97
2022-08-30T04:30:49.781Z,99310.06
2022-08-30T04:33:19.058Z,99311.03
2022-08-30T04:35:50.964Z,99304.25
2022-08-30T04:38:20.527Z,99294.09
2022-08-30T04:40:51.221Z,99288.84
2022-08-30T04:43:19.743Z,99295.66
2022-08-30T04:45:49.266Z,99294.00
2022-08-30T04:48:18.869Z,99290.28
2022-08-30T04:50:47.815Z,99289.16
2022-08-30T04:53:17.330Z,99294.25
2022-08-30T04:55:46.046Z,99298.59
2022-08-30T04:58:14.667Z,99287.47
2022-08-30T05:00:45.370Z,99286.91
2022-08-30T05:03:14.068Z,99284.50
2022-08-30T05:05:42.964Z,99276.22
2022-08-30T05:08:15.035Z,99263.97
2022-08-30T05:10:46.628Z,99264.41
2022-08-30T05:13:16.472Z,99272.91
2022-08-30T05:15:45.745Z,99267.66
2022-08-30T05:18:15.467Z,99268.59
2022-08-30T05:20:45.474Z,99258.03
2022-08-30T05:23:14.168Z,99259.16
2022-08-30T05:25:43.902Z,99254.63
2022-08-30T05:28:12.498Z,99237.03
2022-08-30T05:30:41.083Z,99237.19
2022-08-30T05:33:09.581Z,99227.13
2022-08-30T05:35:38.135Z,99219.91
2022-08-30T05:38:06.642Z,99220.09
2022-08-30T05:40:35.370Z,99214.56
2022-08-30T05:43:05.175Z,99209.06
2022-08-30T05:45:33.728Z,99204.31
2022-08-30T05:48:02.868Z,99206.41
2022-08-30T05:50:31.630Z,99201.88
2022-08-30T05:53:00.211Z,99192.63
2022-08-30T05:55:28.757Z,99185.84
2022-08-30T05:57:57.308Z,99177.75
2022-08-30T06:00:26.266Z,99180.78
2022-08-30T06:02:55.979Z,99179.47
2022-08-30T06:05:24.860Z,99179.47
2022-08-30T06:07:54.491Z,99167.94
2022-08-30T06:10:23.106Z,99169.06
2022-08-30T06:12:51.583Z,99154.16
2022-08-30T06:15:20.238Z,99152.47
2022-08-30T06:17:50.124Z,99154.13
2022-08-30T06:20:21.200Z,99135.25
2022-08-30T06:22:49.815Z,99134.31
2022-08-30T06:25:18.555Z,99132.56
2022-08-30T06:27:47.099Z,99135.19
2022-08-30T06:30:16.102Z,99131.41
2022-08-30T06:32:47.536Z,99127.84
2022-08-30T06:35:16.045Z,99113.47
2022-08-30T06:37:44.719Z,99100.09
2022-08-30T06:40:14.632Z,99092.34
2022-08-30T06:42:43.193Z,99088.78
2022-08-30T06:45:12.129Z,99095.19
2022-08-30T06:47:41.663Z,99096.50
2022-08-30T06:50:14.456Z,99103.47
2022-08-30T06:52:45.058Z,99107.63
2022-08-30T06:55:17.878Z,99091.78
2022-08-30T06:57:47.823Z,99091.56
2022-08-30T07:00:18.067Z,99106.06
2022-08-30T07:02:46.814Z,99107.00
2022-08-30T07:05:18.624Z,99089.59
2022-08-30T07:07:47.605Z,99086.38
2022-08-30T07:10:17.147Z,99095.22
2022-08-30T07:12:45.833Z,99092.00
2022-08-30T07:15:15.009Z,99089.53
2022-08-30T07:18:12.590Z,99079.34
2022-08-30T07:20:41.230Z,99077.63
2022-08-30T07:23:11.664Z,99073.09
2022-08-30T07:25:42.597Z,99060.25
2022-08-30T07:28:12.882Z,99054.38
2022-08-30T07:30:43.207Z,99043.66
2022-08-30T07:33:11.795Z,99049.28
2022-08-30T07:35:40.309Z,99062.13
2022-08-30T07:38:08.799Z,99059.28
2022-08-30T07:40:39.654Z,99059.47
2022-08-30T07:43:08.288Z,99061.22
2022-08-30T07:45:39.341Z,99058.03
2022-08-30T07:48:08.387Z,99056.38
2022-08-30T07:50:36.883Z,99056.00
2022-08-30T07:53:07.973Z,99046.03
2022-08-30T07:55:39.465Z,99038.16
2022-08-30T07:58:08.039Z,99031.81
2022-08-30T08:00:36.619Z,99027.50
2022-08-30T08:03:09.461Z,99018.06
2022-08-30T08:05:40.635Z,99010.75
2022-08-30T08:08:09.844Z,98999.09
2022-08-30T08:10:40.684Z,99000.81
2022-08-30T08:13:09.242Z,98991.22
2022-08-30T08:15:38.628Z,99002.72
2022-08-30T08:18:08.211Z,99009.31
2022-08-30T08:20:36.928Z,99011.38
2022-08-30T08:23:06.071Z,99011.38
2022-08-30T08:25:36.418Z,98999.13
2022-08-30T08:28:05.203Z,98980.66
2022-08-30T08:30:36.691Z,98968.59
2022-08-30T08:33:06.493Z,98963.50
2022-08-30T08:35:35.640Z,98958.41
2022-08-30T08:38:04.126Z,98961.00
2022-08-30T08:40:58.001Z,98957.41
2022-08-30T08:43:28.333Z,98958.75
2022-08-30T08:46:11.712Z,98961.94
2022-08-30T08:49:00.658Z,98958.16
2022-08-30T08:51:58.825Z,98950.03
2022-08-30T08:54:48.105Z,98948.31
2022-08-30T08:57:18.459Z,98945.66
2022-08-30T08:59:47.961Z,98947.56
2022-08-30T09:02:30.597Z,98957.91
2022-08-30T09:05:04.115Z,98956.94
2022-08-30T09:07:37.643Z,98958.06
2022-08-30T09:10:06.878Z,98958.63
2022-08-30T09:12:35.515Z,98958.22
2022-08-30T09:15:29.292Z,98955.56
2022-08-30T09:18:03.450Z,98960.09
2022-08-30T09:20:49.349Z,98957.41
2022-08-30T09:23:17.885Z,98960.38
2022-08-30T09:26:02.283Z,98959.44
2022-08-30T09:28:45.305Z,98970.34
2022-08-30T09:31:32.053Z,98948.28
2022-08-30T09:34:07.230Z,98942.22
2022-08-30T09:36:52.448Z,98934.88
2022-08-30T09:39:36.461Z,98916.97
2022-08-30T09:42:20.177Z,98921.88
2022-08-30T09:44:48.915Z,98926.00
2022-08-30T09:47:32.609Z,98931.66
2022-08-30T09:50:13.474Z,98928.06
2022-08-30T09:52:49.845Z,98931.66
2022-08-30T09:55:42.066Z,98934.47
2022-08-30T09:58:58.079Z,98922.44
2022-08-30T10:01:41.967Z,98927.31
2022-08-30T10:04:31.226Z,98935.03
2022-08-30T10:07:33.733Z,98946.34
2022-08-30T10:10:16.711Z,98940.69
2022-08-30T10:12:55.555Z,98949.91
2022-08-30T10:15:37.792Z,98958.94
2022-08-30T10:18:27.816Z,98965.91
2022-08-30T10:21:19.299Z,98967.22
2022-08-30T10:23:55.453Z,98967.75
2022-08-30T10:26:23.881Z,98969.81
2022-08-30T10:29:01.111Z,98976.03
2022-08-30T10:31:51.036Z,98986.56
2022-08-30T10:34:47.698Z,98981.47
2022-08-30T10:37:24.770Z,98984.84
2022-08-30T10:40:25.131Z,98977.69
2022-08-30T10:42:57.944Z,98981.84
2022-08-30T10:45:28.519Z,98973.91
2022-08-30T10:48:14.986Z,98975.03
2022-08-30T10:50:49.499Z,98973.31
2022-08-30T10:53:42.383Z,98977.81
2022-08-30T10:56:16.728Z,98980.44
2022-08-30T10:58:45.691Z,98983.06
2022-08-30T11:01:33.927Z,98987.19
2022-08-30T11:04:20.585Z,98987.75
2022-08-30T11:07:12.050Z,98986.00
2022-08-30T11:10:14.082Z,98987.88
2022-08-30T11:13:00.968Z,98987.47
2022-08-30T11:15:37.007Z,98984.44
2022-08-30T11:18:11.611Z,98984.00
2022-08-30T11:20:44.915Z,98979.47
2022-08-30T11:23:25.325Z,98982.84
2022-08-30T11:25:58.093Z,98986.97
2022-08-30T11:28:39.529Z,98979.63
2022-08-30T11:31:12.372Z,98976.59
2022-08-30T11:33:50.474Z,98973.34
2022-08-30T11:36:37.729Z,98978.78
2022-08-30T11:39:31.205Z,98975.00
2022-08-30T11:45:26.868Z,98971.34
2022-08-30T11:48:04.437Z,98985.06
2022-08-30T11:50:48.569Z,98982.03
2022-08-30T11:53:46.579Z,98979.00
2022-08-30T11:56:23.190Z,98973.72
2022-08-30T11:59:21.491Z,98969.91
2022-08-30T12:01:56.486Z,98972.50
2022-08-30T12:04:41.615Z,98974.38
2022-08-30T12:07:10.652Z,98974.94
2022-08-30T12:09:39.894Z,98980.56
2022-08-30T12:12:33.737Z,98973.41
2022-08-30T12:15:02.463Z,98971.13
2022-08-30T12:18:19.610Z,98974.50
2022-08-30T12:20:51.409Z,98976.38
2022-08-30T12:23:22.366Z,98992.31
2022-08-30T12:26:10.932Z,98985.69
2022-08-30T12:28:42.216Z,98990.56
2022-08-30T12:31:23.813Z,98989.06
2022-08-30T12:33:58.811Z,98995.47
2022-08-30T12:36:51.811Z,98996.75
2022-08-30T12:39:36.449Z,99004.47
2022-08-30T12:42:19.163Z,99007.28
2022-08-30T12:44:50.182Z,99012.16
2022-08-30T12:47:32.344Z,99029.09
2022-08-30T12:50:01.499Z,99024.00
2022-08-30T12:52:33.182Z,99028.34
2022-08-30T12:55:30.529Z,99037.34
2022-08-30T12:58:11.771Z,99038.66
2022-08-30T13:00:43.835Z,99045.59
2022-08-30T13:03:34.804Z,99053.25
2022-08-30T13:06:04.488Z,99054.56
2022-08-30T13:08:38.482Z,99056.41
2022-08-30T13:11:29.320Z,99066.19
2022-08-30T13:14:34.760Z,99076.69
2022-08-30T13:17:11.126Z,99075.94
2022-08-30T13:19:44.387Z,99075.19
2022-08-30T13:22:27.009Z,99082.88
2022-08-30T13:24:55.877Z,99087.78
2022-08-30T13:27:26.051Z,99095.47
2022-08-30T13:29:54.807Z,99098.84
2022-08-30T13:32:25.847Z,99097.31
2022-08-30T13:34:54.467Z,99095.59
2022-08-30T13:40:18.514Z,99096.69
2022-08-30T13:42:47.327Z,99106.44
2022-08-30T13:48:08.193Z,99105.69
2022-08-30T13:50:36.755Z,99093.44
2022-08-30T13:53:05.344Z,99111.09
2022-08-30T13:55:35.460Z,99110.34
2022-08-30T13:58:04.040Z,99111.66
2022-08-30T14:00:37.579Z,99112.97
2022-08-30T14:03:06.572Z,99107.88
2022-08-30T14:06:15.541Z,99083.03
2022-08-30T14:08:47.815Z,99092.00
2022-08-30T14:11:21.141Z,99094.63
2022-08-30T14:16:43.211Z,99115.44
2022-08-30T14:19:13.619Z,99115.44
2022-08-30T14:21:43.105Z,99114.69
2022-08-30T14:24:14.133Z,99121.06
2022-08-30T14:26:52.327Z,99126.72
2022-08-30T14:29:24.398Z,99130.06
2022-08-30T14:31:53.990Z,99129.31
2022-08-30T14:34:24.050Z,99133.44
2022-08-30T14:36:52.697Z,99133.97
2022-08-30T14:39:22.660Z,99126.81
2022-08-30T14:41:55.893Z,99123.78
2022-08-30T14:44:25.814Z,99111.53
2022-08-30T14:46:55.186Z,99115.66
2022-08-30T14:49:25.283Z,99113.38
2022-08-30T14:51:55.511Z,99112.63
2022-08-30T14:54:27.461Z,99117.50
2022-08-30T14:56:56.247Z,99130.06
2022-08-30T14:59:26.209Z,99132.13
2022-08-30T15:01:54.868Z,99137.00
2022-08-30T15:04:23.667Z,99141.88
2022-08-30T15:06:52.842Z,99136.25
2022-08-30T15:09:24.656Z,99150.34
2022-08-30T15:11:58.502Z,99155.22
2022-08-30T15:14:28.293Z,99160.84
2022-08-30T15:16:59.230Z,99159.56
2022-08-30T15:19:28.895Z,99157.50
2022-08-30T15:22:02.936Z,99161.84
2022-08-30T15:24:32.931Z,99156.94
2022-08-30T15:27:02.757Z,99162.38
2022-08-30T15:29:32.082Z,99163.66
2022-08-30T15:32:02.513Z,99166.28
2022-08-30T15:34:32.936Z,99158.34
2022-08-30T15:37:02.089Z,99153.75
2022-08-30T15:39:32.437Z,99154.06
2022-08-30T15:42:01.815Z,99169.47
2022-08-30T15:44:34.409Z,99167.19
2022-08-30T15:47:03.387Z,99168.47
2022-08-30T15:49:31.957Z,99172.59
2022-08-30T15:52:05.739Z,99179.53
2022-08-30T15:54:36.634Z,99169.56
2022-08-30T15:57:05.858Z,99176.50
2022-08-30T15:59:34.605Z,99177.78
2022-08-30T16:02:03.254Z,99177.78
2022-08-30T16:04:32.068Z,99173.47
2022-08-30T16:07:00.574Z,99167.81
2022-08-30T16:09:30.019Z,99170.63
2022-08-30T16:12:02.490Z,99168.38
2022-08-30T16:14:33.937Z,99179.63
2022-08-30T16:17:03.120Z,99176.06
2022-08-30T16:19:32.069Z,99177.56
2022-08-30T16:22:00.929Z,99178.88
2022-08-30T16:24:29.640Z,99189.38
2022-08-30T16:26:58.429Z,99182.22
2022-08-30T16:29:27.052Z,99183.00
2022-08-30T16:31:56.869Z,99183.75
2022-08-30T16:34:26.234Z,99179.41
2022-08-30T16:36:55.547Z,99178.88
2022-08-30T16:39:24.988Z,99186.03
2022-08-30T16:41:53.781Z,99177.56
2022-08-30T16:44:22.287Z,99181.91
2022-08-30T16:46:55.099Z,99177.56
2022-08-30T16:49:25.499Z,99178.88
2022-08-30T16:51:54.817Z,99183.00
2022-08-30T16:54:24.327Z,99182.22
2022-08-30T16:56:53.254Z,99188.63
2022-08-30T16:59:22.502Z,99186.34
2022-08-30T17:01:51.076Z,99181.47
2022-08-30T17:04:21.712Z,99173.03
2022-08-30T17:06:51.369Z,99169.44
2022-08-30T17:09:20.731Z,99172.25
2022-08-30T17:11:51.258Z,99167.16
2022-08-30T17:14:27.781Z,99166.41
2022-08-30T17:17:00.362Z,99162.84
2022-08-30T17:19:29.551Z,99153.63
2022-08-30T17:21:59.070Z,99144.41
2022-08-30T17:24:28.409Z,99142.13
2022-08-30T17:26:58.413Z,99133.47
2022-08-30T17:29:27.091Z,99133.97
2022-08-30T17:31:56.953Z,99132.47
2022-08-30T17:34:27.121Z,99134.53
2022-08-30T17:36:58.126Z,99133.75
2022-08-30T17:39:29.291Z,99129.44
2022-08-30T17:41:58.256Z,99119.47
2022-08-30T17:44:30.930Z,99118.72
2022-08-30T17:47:01.739Z,99111.56
2022-08-30T17:49:31.256Z,99106.47
2022-08-30T17:52:01.466Z,99109.06
2022-08-30T17:54:32.161Z,99103.44
2022-08-30T17:57:01.090Z,99099.09
2022-08-30T17:59:32.591Z,99106.78
2022-08-30T18:02:02.965Z,99103.22
2022-08-30T18:04:31.533Z,99094.75
2022-08-30T18:07:00.088Z,99089.91
2022-08-30T18:09:33.183Z,99088.38
2022-08-30T18:12:02.938Z,99091.94
2022-08-30T18:14:31.728Z,99086.09
2022-08-30T18:17:00.399Z,99076.13
2022-08-30T18:19:31.405Z,99083.81
2022-08-30T18:22:03.229Z,99074.41
2022-08-30T18:24:32.594Z,99071.59
2022-08-30T18:27:03.474Z,99068.00
2022-08-30T18:29:34.945Z,99069.31
2022-08-30T18:32:04.332Z,99066.50
2022-08-30T18:34:33.529Z,99058.59
2022-08-30T18:37:02.782Z,99068.34
2022-08-30T18:39:34.127Z,99051.22
2022-08-30T18:42:05.113Z,99051.75
2022-08-30T18:44:35.257Z,99044.63
2022-08-30T18:47:05.878Z,99036.19
2022-08-30T18:49:36.159Z,99033.34
2022-08-30T18:52:07.931Z,99017.78
2022-08-30T18:54:52.375Z,99031.84
2022-08-30T18:57:24.353Z,99030.28
2022-08-30T18:59:52.909Z,99035.72
2022-08-30T19:02:21.905Z,99026.50
2022-08-30T19:04:56.329Z,99027.25
2022-08-30T19:07:30.911Z,99017.53
2022-08-30T19:10:14.919Z,99025.97
2022-08-30T19:12:49.975Z,99017.31
2022-08-30T19:15:21.137Z,99020.13
2022-08-30T19:17:50.025Z,99020.63
2022-08-30T19:20:22.657Z,99020.63
2022-08-30T19:23:08.814Z,99020.41
2022-08-30T19:25:40.549Z,99020.94
2022-08-30T19:28:09.455Z,99011.75
2022-08-30T19:30:38.518Z,99012.50
2022-08-30T19:33:07.117Z,99006.88
2022-08-30T19:35:40.200Z,99010.25
2022-08-30T19:38:08.736Z,99017.91
2022-08-30T19:40:37.277Z,99019.22
2022-08-30T19:43:07.822Z,99019.75
2022-08-30T19:45:36.433Z,99016.72
2022-08-30T19:48:05.451Z,99020.84
2022-08-30T19:50:34.246Z,99027.22
2022-08-30T19:53:04.611Z,99036.97
2022-08-30T19:55:35.266Z,99035.44
2022-08-30T19:58:03.962Z,99039.56
2022-08-30T20:00:33.328Z,99044.44
2022-08-30T20:03:05.554Z,99041.41
2022-08-30T20:05:35.157Z,99038.34
2022-08-30T20:08:03.874Z,99036.09
2022-08-30T20:10:32.419Z,99036.09
2022-08-30T20:13:01.495Z,99038.13
2022-08-30T20:15:29.991Z,99045.81
2022-08-30T20:18:14.545Z,99043.78
2022-08-30T20:20:48.069Z,99049.94
2022-08-30T20:23:19.734Z,99045.06
2022-08-30T20:25:56.439Z,99053.50
2022-08-30T20:28:26.625Z,99049.16
2022-08-30T20:30:57.060Z,99051.19
2022-08-30T20:33:26.755Z,99058.88
2022-08-30T20:35:55.721Z,99060.41
2022-08-30T20:38:25.108Z,99067.31
2022-08-30T20:40:57.502Z,99066.56
2022-08-30T20:43:30.136Z,99057.38
2022-08-30T20:45:58.822Z,99060.94
2022-08-30T20:48:29.715Z,99053.78
2022-08-30T20:50:58.233Z,99057.91
2022-08-30T20:53:26.828Z,99053.03
2022-08-30T20:55:55.386Z,99060.72
2022-08-30T20:58:23.851Z,99055.09
2022-08-30T21:00:54.565Z,99053.56
2022-08-30T21:03:26.205Z,99059.75
2022-08-30T21:05:57.574Z,99058.97
2022-08-30T21:08:26.549Z,99048.25
2022-08-30T21:10:55.626Z,99050.09
2022-08-30T21:13:24.262Z,99046.53
2022-08-30T21:16:00.513Z,99049.34
2022-08-30T21:18:34.977Z,99052.69
2022-08-30T21:21:22.224Z,99063.94
2022-08-30T21:23:51.838Z,99059.06
2022-08-30T21:26:21.584Z,99059.59
2022-08-30T21:28:51.609Z,99068.03
2022-08-30T21:31:23.493Z,99062.97
2022-08-30T21:33:53.642Z,99062.72
2022-08-30T21:36:42.379Z,99061.22
2022-08-30T21:39:12.131Z,99059.69
2022-08-30T21:41:40.890Z,99053.84
2022-08-30T21:44:13.021Z,99057.97
2022-08-30T21:46:42.317Z,99064.88
2022-08-30T21:49:13.421Z,99062.59
2022-08-30T21:51:45.830Z,99059.03
2022-08-30T21:54:16.010Z,99059.03
2022-08-30T21:56:48.085Z,99059.03
2022-08-30T21:59:17.302Z,99055.47
2022-08-30T22:01:46.012Z,99046.78
2022-08-30T22:04:16.262Z,99051.13
2022-08-30T22:06:51.305Z,99041.91
2022-08-30T22:09:23.958Z,99031.19
2022-08-30T22:11:53.578Z,99037.34
2022-08-30T22:14:24.378Z,99025.34
2022-08-30T22:16:55.138Z,99025.13
2022-08-30T22:19:23.933Z,99021.56
2022-08-30T22:22:01.453Z,99033.34
2022-08-30T22:24:33.025Z,99025.44
2022-08-30T22:27:03.295Z,99028.25
2022-08-30T22:29:32.027Z,99029.53
2022-08-30T22:32:01.084Z,99027.50
2022-08-30T22:34:29.729Z,99024.44
2022-08-30T22:36:58.285Z,99035.69
2022-08-30T22:39:27.491Z,99034.19
2022-08-30T22:41:56.177Z,99038.25
2022-08-30T22:44:24.766Z,99036.75
2022-08-30T22:46:53.409Z,99050.03
2022-08-30T22:49:22.005Z,99043.66
2022-08-30T22:51:51.721Z,99048.53
2022-08-30T22:54:20.287Z,99042.16
2022-08-30T22:56:48.833Z,99049.28
2022-08-30T22:59:17.530Z,99047.00
2022-08-30T23:01:48.044Z,99055.66
2022-08-30T23:04:16.743Z,99049.28
2022-08-30T23:06:50.173Z,99059.25
2022-08-30T23:09:19.359Z,99063.56
2022-08-30T23:11:48.348Z,99061.50
2022-08-30T23:14:17.201Z,99052.31
2022-08-30T23:16:46.143Z,99051.06
2022-08-30T23:19:15.003Z,99060.25
2022-08-30T23:21:44.412Z,99063.81
2022-08-30T23:24:31.100Z,99079.41
2022-08-30T23:27:17.903Z,99075.28
2022-08-30T23:30:04.834Z,99083.19
2022-08-30T23:32:52.296Z,99084.72
2022-08-30T23:35:39.571Z,99089.28
2022-08-30T23:38:26.595Z,99097.16
2022-08-30T23:41:13.615Z,99094.59
2022-08-30T23:44:00.357Z,99092.03
2022-08-30T23:46:47.372Z,99093.53
2022-08-30T23:49:34.070Z,99086.09
2022-08-30T23:52:21.223Z,99095.50
2022-08-30T23:55:08.230Z,99099.31
2022-08-30T23:57:55.179Z,99102.34
